createdAt,value
2023-05-08T00:00:33.211Z,15.23
2023-05-08T00:03:00.328Z,16.17
2023-05-08T00:05:27.272Z,15.27
2023-05-08T00:08:01.312Z,15.18
2023-05-08T00:10:29.189Z,15.30
2023-05-08T00:12:56.497Z,16.58
2023-05-08T00:15:23.367Z,16.75
2023-05-08T00:17:50.287Z,15.00
2023-05-08T00:20:17.180Z,17.48
2023-05-08T00:22:44.055Z,16.58
2023-05-08T00:25:10.976Z,16.70
2023-05-08T00:27:37.886Z,16.98
2023-05-08T00:30:05.858Z,16.55
2023-05-08T00:32:32.733Z,14.90
2023-05-08T00:34:59.649Z,16.12
2023-05-08T00:37:26.496Z,16.02
2023-05-08T00:39:53.314Z,16.70
2023-05-08T00:44:46.936Z,16.77
2023-05-08T00:47:13.828Z,15.77
2023-05-08T00:49:40.932Z,15.95
2023-05-08T00:52:11.214Z,16.35
2023-05-08T00:54:38.578Z,14.87
2023-05-08T00:57:08.788Z,15.43
2023-05-08T00:59:36.827Z,17.17
2023-05-08T01:02:04.295Z,16.35
2023-05-08T01:04:32.039Z,16.37
2023-05-08T01:06:58.925Z,15.73
2023-05-08T01:09:25.987Z,15.68
2023-05-08T01:12:18.205Z,17.05
2023-05-08T01:14:58.751Z,15.63
2023-05-08T01:17:51.102Z,15.60
2023-05-08T01:21:03.193Z,13.95
2023-05-08T01:23:42.119Z,14.73
2023-05-08T01:26:11.608Z,15.55
2023-05-08T01:29:00.822Z,14.65
2023-05-08T01:32:04.910Z,14.35
2023-05-08T01:34:33.394Z,18.60
2023-05-08T01:37:04.106Z,15.43
2023-05-08T01:39:40.204Z,17.25
2023-05-08T01:42:36.068Z,16.83
2023-05-08T01:45:13.122Z,14.45
2023-05-08T01:47:41.497Z,15.88
2023-05-08T01:50:22.525Z,15.52
2023-05-08T01:52:52.017Z,19.55
2023-05-08T01:55:27.871Z,14.75
2023-05-08T01:57:55.548Z,17.95
2023-05-08T02:00:24.525Z,13.55
2023-05-08T02:02:52.871Z,15.63
2023-05-08T02:05:21.712Z,16.55
2023-05-08T02:07:49.840Z,14.63
2023-05-08T02:10:17.726Z,16.85
2023-05-08T02:12:45.218Z,14.82
2023-05-08T02:15:14.180Z,15.15
2023-05-08T02:17:41.896Z,15.18
2023-05-08T02:20:14.969Z,17.90
2023-05-08T02:22:46.555Z,15.93
2023-05-08T02:25:14.873Z,17.62
2023-05-08T02:27:47.016Z,16.83
2023-05-08T02:30:15.933Z,15.07
2023-05-08T02:32:44.059Z,16.08
2023-05-08T02:35:20.483Z,15.50
2023-05-08T02:37:51.435Z,16.17
2023-05-08T02:40:18.981Z,15.85
2023-05-08T02:42:47.035Z,16.62
2023-05-08T02:45:14.834Z,16.35
2023-05-08T02:48:02.269Z,18.27
2023-05-08T02:50:59.461Z,17.15
2023-05-08T02:53:41.247Z,16.23
2023-05-08T02:56:15.280Z,18.33
2023-05-08T02:58:49.002Z,17.05
2023-05-08T03:01:27.254Z,17.42
2023-05-08T03:04:01.685Z,18.50
2023-05-08T03:06:35.580Z,17.52
2023-05-08T03:09:04.150Z,17.40
2023-05-08T03:11:37.407Z,17.00
2023-05-08T03:14:06.530Z,19.87
2023-05-08T03:16:35.456Z,16.92
2023-05-08T03:19:06.003Z,15.85
2023-05-08T03:21:32.883Z,17.17
2023-05-08T03:24:01.257Z,16.67
2023-05-08T03:26:28.264Z,18.62
2023-05-08T03:28:56.970Z,17.30
2023-05-08T03:31:24.553Z,17.48
2023-05-08T03:33:53.613Z,18.05
2023-05-08T03:36:21.530Z,19.85
2023-05-08T03:38:48.785Z,19.65
2023-05-08T03:41:15.651Z,18.20
2023-05-08T03:43:42.602Z,20.15
2023-05-08T03:46:10.517Z,18.75
2023-05-08T03:48:37.975Z,17.33
2023-05-08T03:51:05.495Z,18.92
2023-05-08T03:53:33.376Z,17.60
2023-05-08T03:56:00.883Z,22.20
2023-05-08T03:58:45.057Z,16.58
2023-05-08T04:01:26.152Z,17.20
2023-05-08T04:04:15.172Z,18.33
2023-05-08T04:06:51.349Z,15.45
2023-05-08T04:09:28.418Z,17.23
2023-05-08T04:12:05.933Z,17.12
2023-05-08T04:14:38.327Z,16.15
2023-05-08T04:17:08.142Z,17.10
2023-05-08T04:19:39.520Z,14.85
2023-05-08T04:22:07.918Z,14.25
2023-05-08T04:24:37.931Z,16.02
2023-05-08T04:27:05.214Z,14.60
2023-05-08T04:29:32.760Z,13.10
2023-05-08T04:32:01.243Z,14.20
2023-05-08T04:34:29.319Z,15.00
2023-05-08T04:36:56.574Z,13.70
2023-05-08T04:39:23.408Z,14.65
2023-05-08T04:41:52.587Z,15.30
2023-05-08T04:44:19.487Z,13.43
2023-05-08T04:46:46.339Z,15.60
2023-05-08T04:49:13.188Z,13.65
2023-05-08T04:51:40.052Z,14.25
2023-05-08T04:54:06.896Z,14.73
2023-05-08T04:56:33.782Z,12.98
2023-05-08T04:59:00.647Z,13.48
2023-05-08T05:01:27.535Z,14.38
2023-05-08T05:03:54.433Z,12.85
2023-05-08T05:06:21.334Z,14.93
2023-05-08T05:08:48.173Z,13.18
2023-05-08T05:11:15.019Z,13.27
2023-05-08T05:13:41.868Z,13.13
2023-05-08T05:16:08.801Z,13.80
2023-05-08T05:18:36.029Z,11.45
2023-05-08T05:21:03.850Z,13.25
2023-05-08T05:23:30.732Z,12.10
2023-05-08T05:25:57.672Z,12.25
2023-05-08T05:28:24.520Z,12.65
2023-05-08T05:30:52.027Z,11.45
2023-05-08T05:33:18.946Z,13.38
2023-05-08T05:35:45.804Z,11.95
2023-05-08T05:38:12.681Z,12.52
2023-05-08T05:40:39.560Z,11.73
2023-05-08T05:43:06.417Z,11.73
2023-05-08T05:45:33.782Z,12.48
2023-05-08T05:48:00.766Z,11.65
2023-05-08T05:50:27.856Z,13.98
2023-05-08T05:52:57.510Z,13.80
2023-05-08T05:55:24.503Z,12.80
2023-05-08T05:57:51.388Z,11.88
2023-05-08T06:00:18.598Z,12.75
2023-05-08T06:02:45.778Z,12.18
2023-05-08T06:05:13.133Z,12.05
2023-05-08T06:07:40.209Z,11.30
2023-05-08T06:10:07.764Z,12.13
2023-05-08T06:12:34.905Z,11.77
2023-05-08T06:15:01.780Z,11.30
2023-05-08T06:17:28.623Z,11.60
2023-05-08T06:19:56.155Z,11.02
2023-05-08T06:22:24.470Z,10.68
2023-05-08T06:24:54.560Z,10.93
2023-05-08T06:27:22.526Z,11.32
2023-05-08T06:29:53.178Z,11.07
2023-05-08T06:32:20.874Z,11.93
2023-05-08T06:34:48.146Z,10.93
2023-05-08T06:37:15.103Z,11.20
2023-05-08T06:39:42.019Z,10.23
2023-05-08T06:42:09.117Z,9.55
2023-05-08T06:44:36.292Z,10.23
2023-05-08T06:47:03.357Z,10.82
2023-05-08T06:49:30.783Z,11.02
2023-05-08T06:51:58.191Z,9.48
2023-05-08T06:54:25.514Z,10.55
2023-05-08T06:56:54.201Z,10.38
2023-05-08T06:59:23.351Z,9.40
2023-05-08T07:01:50.733Z,11.35
2023-05-08T07:04:17.679Z,10.55
2023-05-08T07:06:44.563Z,10.13
2023-05-08T07:09:12.066Z,10.85
2023-05-08T07:11:38.965Z,10.27
2023-05-08T07:14:05.804Z,10.30
2023-05-08T07:16:32.794Z,9.65
2023-05-08T07:18:59.835Z,9.93
2023-05-08T07:21:26.646Z,11.95
2023-05-08T07:23:54.831Z,9.52
2023-05-08T07:26:22.724Z,9.73
2023-05-08T07:28:51.053Z,9.45
2023-05-08T07:31:18.005Z,10.05
2023-05-08T07:33:44.989Z,10.52
2023-05-08T07:36:11.996Z,10.75
2023-05-08T07:38:38.927Z,9.65
2023-05-08T07:41:05.852Z,11.00
2023-05-08T07:43:32.949Z,11.73
2023-05-08T07:45:59.890Z,10.77
2023-05-08T07:48:27.017Z,11.52
2023-05-08T07:50:53.878Z,10.07
2023-05-08T07:53:20.752Z,10.45
2023-05-08T07:55:47.909Z,10.93
2023-05-08T07:58:23.801Z,12.77
2023-05-08T08:00:50.945Z,9.52
2023-05-08T08:03:17.921Z,9.48
2023-05-08T08:05:44.926Z,12.30
2023-05-08T08:08:11.945Z,10.15
2023-05-08T08:10:39.765Z,10.40
2023-05-08T08:13:06.958Z,10.15
2023-05-08T08:15:33.892Z,11.25
2023-05-08T08:18:00.857Z,9.52
2023-05-08T08:20:27.748Z,11.82
2023-05-08T08:22:54.686Z,11.25
2023-05-08T08:25:24.567Z,12.00
2023-05-08T08:27:51.570Z,11.25
2023-05-08T08:30:18.957Z,11.50
2023-05-08T08:35:19.958Z,12.70
2023-05-08T08:37:46.960Z,11.00
2023-05-08T08:40:13.995Z,10.85
2023-05-08T08:42:41.134Z,11.05
2023-05-08T08:45:08.822Z,11.77
2023-05-08T08:47:41.596Z,10.98
2023-05-08T08:50:12.043Z,14.30
2023-05-08T08:52:43.444Z,10.68
2023-05-08T08:55:13.273Z,12.25
2023-05-08T08:58:06.545Z,12.68
2023-05-08T09:00:33.481Z,10.68
2023-05-08T09:03:00.833Z,11.93
2023-05-08T09:05:28.136Z,10.52
2023-05-08T09:07:55.886Z,12.73
2023-05-08T09:10:24.511Z,11.10
2023-05-08T09:12:53.983Z,10.88
2023-05-08T09:15:21.085Z,14.77
2023-05-08T09:17:48.002Z,11.93
2023-05-08T09:20:16.264Z,10.77
2023-05-08T09:22:43.823Z,12.23
2023-05-08T09:25:11.231Z,13.10
2023-05-08T09:27:38.571Z,19.85
2023-05-08T09:30:07.614Z,13.18
2023-05-08T09:32:36.639Z,10.50
2023-05-08T09:35:04.903Z,19.50
2023-05-08T09:37:32.142Z,9.73
2023-05-08T09:40:20.071Z,9.60
2023-05-08T09:42:50.308Z,13.80
2023-05-08T09:45:35.466Z,10.30
2023-05-08T09:48:02.590Z,8.95
2023-05-08T09:50:29.596Z,16.70
2023-05-08T09:52:56.595Z,11.40
2023-05-08T09:55:23.447Z,16.55
2023-05-08T09:57:54.311Z,12.10
2023-05-08T10:00:21.643Z,16.50
2023-05-08T10:02:59.956Z,12.77
2023-05-08T10:05:32.487Z,9.10
2023-05-08T10:08:18.544Z,10.48
2023-05-08T10:10:45.457Z,9.95
2023-05-08T10:13:12.422Z,11.75
2023-05-08T10:15:44.489Z,12.80
2023-05-08T10:18:14.869Z,10.23
2023-05-08T10:20:44.536Z,13.43
2023-05-08T10:23:15.322Z,11.20
2023-05-08T10:25:49.528Z,10.25
2023-05-08T10:28:35.482Z,11.55
2023-05-08T10:31:03.913Z,10.40
2023-05-08T10:33:34.384Z,10.30
2023-05-08T10:36:01.794Z,10.48
2023-05-08T10:38:28.772Z,10.90
2023-05-08T10:40:58.310Z,11.40
2023-05-08T10:43:26.118Z,9.57
2023-05-08T10:45:57.170Z,10.15
2023-05-08T10:48:45.826Z,11.40
2023-05-08T10:51:41.016Z,10.75
2023-05-08T10:54:24.871Z,10.95
2023-05-08T10:56:51.817Z,9.93
2023-05-08T10:59:20.035Z,10.48
2023-05-08T11:01:50.835Z,9.32
2023-05-08T11:04:22.560Z,10.30
2023-05-08T11:06:53.095Z,9.32
2023-05-08T11:09:41.951Z,9.38
2023-05-08T11:12:24.425Z,10.48
2023-05-08T11:15:10.339Z,10.98
2023-05-08T11:17:37.263Z,9.02
2023-05-08T11:20:07.139Z,10.10
2023-05-08T11:22:38.329Z,10.73
2023-05-08T11:25:10.020Z,9.50
2023-05-08T11:27:49.902Z,10.05
2023-05-08T11:30:36.765Z,10.35
2023-05-08T11:33:09.406Z,10.27
2023-05-08T11:35:44.818Z,9.55
2023-05-08T11:38:36.140Z,8.65
2023-05-08T11:41:21.800Z,9.77
2023-05-08T11:44:10.840Z,10.48
2023-05-08T11:46:39.521Z,10.30
2023-05-08T11:49:14.606Z,8.25
2023-05-08T11:51:45.078Z,9.73
2023-05-08T11:54:19.526Z,9.23
2023-05-08T12:02:43.911Z,8.00
2023-05-08T12:05:11.604Z,9.68
2023-05-08T12:07:46.849Z,9.00
2023-05-08T12:10:17.728Z,9.00
2023-05-08T12:12:45.547Z,9.38
2023-05-08T12:18:17.785Z,9.43
2023-05-08T12:20:54.644Z,10.25
2023-05-08T12:29:08.715Z,9.20
2023-05-08T12:31:42.605Z,9.05
2023-05-08T12:37:12.255Z,10.02
2023-05-08T12:39:45.932Z,8.20
2023-05-08T12:42:12.957Z,9.15
2023-05-08T12:44:39.859Z,8.85
2023-05-08T12:47:06.917Z,8.45
2023-05-08T12:49:33.768Z,8.15
2023-05-08T12:52:05.548Z,9.57
2023-05-08T12:54:49.480Z,63.15
2023-05-08T12:57:17.911Z,9.75
2023-05-08T12:59:46.204Z,8.55
2023-05-08T13:02:18.398Z,8.50
2023-05-08T13:04:45.991Z,8.05
2023-05-08T13:07:12.955Z,8.55
2023-05-08T13:09:40.256Z,8.55
2023-05-08T13:12:07.422Z,9.70
2023-05-08T13:14:34.318Z,8.15
2023-05-08T13:17:01.392Z,8.18
2023-05-08T13:19:28.374Z,8.10
2023-05-08T13:21:55.255Z,9.05
2023-05-08T13:24:22.089Z,11.23
2023-05-08T13:26:48.956Z,19.15
2023-05-08T13:29:15.821Z,13.10
2023-05-08T13:31:42.697Z,9.77
2023-05-08T13:34:10.205Z,9.35
2023-05-08T13:36:37.172Z,7.87
2023-05-08T13:39:04.295Z,8.23
2023-05-08T13:41:31.257Z,9.93
2023-05-08T13:43:58.122Z,8.68
2023-05-08T13:46:25.396Z,8.93
2023-05-08T13:48:52.296Z,9.68
2023-05-08T13:51:19.193Z,9.05
2023-05-08T13:53:46.024Z,10.25
2023-05-08T13:56:12.997Z,10.00
2023-05-08T13:58:40.428Z,9.20
2023-05-08T14:01:21.745Z,7.50
2023-05-08T14:03:52.336Z,8.45
2023-05-08T14:06:20.638Z,9.00
2023-05-08T14:08:50.424Z,7.82
2023-05-08T14:11:18.500Z,8.07
2023-05-08T14:13:45.371Z,9.35
2023-05-08T14:16:14.518Z,9.18
2023-05-08T14:18:41.491Z,8.90
2023-05-08T14:21:08.343Z,7.78
2023-05-08T14:23:36.141Z,10.73
2023-05-08T14:26:03.098Z,8.10
2023-05-08T14:28:29.989Z,8.10
2023-05-08T14:30:56.882Z,7.87
2023-05-08T14:33:23.837Z,11.12
2023-05-08T14:35:50.697Z,9.65
2023-05-08T14:38:17.564Z,9.05
2023-05-08T14:40:44.377Z,8.25
2023-05-08T14:43:11.212Z,7.97
2023-05-08T14:45:38.073Z,9.27
2023-05-08T14:48:05.361Z,8.32
2023-05-08T14:50:32.228Z,9.88
2023-05-08T14:52:59.182Z,9.57
2023-05-08T14:55:26.549Z,10.15
2023-05-08T14:57:53.508Z,8.82
2023-05-08T15:00:21.515Z,9.05
2023-05-08T15:02:48.914Z,7.97
2023-05-08T15:05:19.903Z,8.30
2023-05-08T15:10:14.185Z,8.38
2023-05-08T15:12:41.128Z,8.48
2023-05-08T15:15:08.376Z,10.13
2023-05-08T15:17:36.627Z,9.57
2023-05-08T15:20:04.501Z,11.23
2023-05-08T15:22:31.557Z,7.68
2023-05-08T15:25:02.593Z,9.20
2023-05-08T15:27:30.065Z,8.02
2023-05-08T15:29:57.115Z,10.73
2023-05-08T15:32:24.833Z,7.45
2023-05-08T15:34:51.719Z,8.98
2023-05-08T15:37:18.586Z,7.35
2023-05-08T15:39:45.547Z,8.13
2023-05-08T15:42:12.366Z,7.97
2023-05-08T15:47:08.956Z,8.50
2023-05-08T15:49:35.788Z,6.37
2023-05-08T15:52:02.663Z,6.82
2023-05-08T15:54:29.532Z,6.75
2023-05-08T15:56:56.369Z,6.15
2023-05-08T15:59:23.770Z,6.45
2023-05-08T16:01:51.510Z,7.12
2023-05-08T16:04:19.134Z,7.15
2023-05-08T16:06:45.990Z,7.82
2023-05-08T16:09:12.855Z,6.70
2023-05-08T16:11:39.696Z,7.15
2023-05-08T16:14:06.539Z,7.93
2023-05-08T16:16:33.493Z,6.20
2023-05-08T16:19:00.453Z,6.37
2023-05-08T16:21:27.805Z,7.00
2023-05-08T16:23:54.653Z,7.22
2023-05-08T16:26:22.579Z,5.80
2023-05-08T16:28:49.649Z,6.37
2023-05-08T16:31:17.212Z,6.32
2023-05-08T16:33:44.184Z,6.78
2023-05-08T16:36:11.062Z,9.27
2023-05-08T16:38:37.946Z,8.77
2023-05-08T16:41:05.868Z,6.82
2023-05-08T16:43:33.186Z,6.97
2023-05-08T16:46:00.073Z,6.95
2023-05-08T16:48:28.184Z,6.95
2023-05-08T16:50:55.904Z,8.77
2023-05-08T16:53:22.810Z,7.40
2023-05-08T16:55:49.648Z,8.52
2023-05-08T16:58:16.522Z,6.87
2023-05-08T17:00:45.644Z,7.12
2023-05-08T17:03:12.543Z,7.22
2023-05-08T17:05:39.419Z,8.30
2023-05-08T17:08:06.305Z,7.97
2023-05-08T17:10:33.117Z,9.10
2023-05-08T17:13:00.019Z,9.05
2023-05-08T17:15:26.921Z,12.73
2023-05-08T17:17:53.908Z,10.73
2023-05-08T17:20:21.016Z,9.20
2023-05-08T17:22:47.877Z,8.65
2023-05-08T17:25:14.757Z,10.38
2023-05-08T17:27:41.652Z,10.30
2023-05-08T17:30:12.236Z,10.23
2023-05-08T17:32:39.530Z,8.82
2023-05-08T17:35:06.979Z,9.32
2023-05-08T17:37:33.862Z,11.82
2023-05-08T17:40:00.695Z,8.43
2023-05-08T17:42:27.592Z,14.73
2023-05-08T17:44:54.437Z,8.25
2023-05-08T17:47:21.443Z,7.35
2023-05-08T17:49:48.309Z,6.70
2023-05-08T17:52:15.699Z,9.07
2023-05-08T17:54:42.586Z,9.68
2023-05-08T17:57:09.485Z,7.80
2023-05-08T17:59:36.300Z,8.60
2023-05-08T18:02:03.289Z,7.30
2023-05-08T18:04:30.192Z,7.95
2023-05-08T18:06:57.036Z,10.57
2023-05-08T18:09:23.861Z,7.93
2023-05-08T18:11:50.742Z,8.45
2023-05-08T18:14:17.554Z,7.43
2023-05-08T18:16:44.451Z,7.37
2023-05-08T18:19:11.977Z,8.38
2023-05-08T18:21:38.842Z,8.35
2023-05-08T18:24:06.152Z,8.43
2023-05-08T18:26:33.042Z,8.63
2023-05-08T18:28:59.984Z,8.25
2023-05-08T18:31:26.900Z,7.78
2023-05-08T18:33:53.825Z,9.20
2023-05-08T18:36:20.688Z,10.10
2023-05-08T18:38:47.536Z,8.73
2023-05-08T18:41:14.426Z,10.45
2023-05-08T18:43:44.911Z,8.35
2023-05-08T18:46:12.761Z,10.27
2023-05-08T18:48:42.943Z,9.05
2023-05-08T18:51:10.354Z,11.82
2023-05-08T18:53:38.593Z,8.45
2023-05-08T18:56:05.852Z,7.43
2023-05-08T18:58:32.835Z,5.37
2023-05-08T19:00:59.761Z,6.05
2023-05-08T19:03:27.048Z,4.22
2023-05-08T19:05:57.117Z,4.10
2023-05-08T19:08:24.265Z,4.12
2023-05-08T19:10:51.111Z,5.47
2023-05-08T19:13:17.940Z,6.62
2023-05-08T19:15:44.853Z,5.70
2023-05-08T19:18:12.839Z,6.65
2023-05-08T19:20:39.723Z,5.47
2023-05-08T19:23:06.562Z,7.93
2023-05-08T19:25:33.413Z,5.00
2023-05-08T19:28:00.309Z,7.22
2023-05-08T19:30:27.180Z,8.02
2023-05-08T19:32:54.034Z,5.93
2023-05-08T19:35:21.384Z,6.57
2023-05-08T19:37:48.256Z,6.78
2023-05-08T19:40:16.541Z,4.68
2023-05-08T19:42:46.644Z,4.65
2023-05-08T19:45:13.639Z,5.32
2023-05-08T19:47:40.549Z,4.05
2023-05-08T19:50:08.002Z,4.47
2023-05-08T19:52:34.878Z,4.60
2023-05-08T19:55:01.740Z,5.70
2023-05-08T19:57:28.559Z,5.90
2023-05-08T19:59:56.125Z,5.25
2023-05-08T20:02:23.008Z,6.53
2023-05-08T20:05:14.311Z,10.70
2023-05-08T20:07:36.708Z,6.15
2023-05-08T20:10:03.760Z,8.90
2023-05-08T20:12:30.652Z,5.45
2023-05-08T20:14:57.501Z,6.12
2023-05-08T20:17:24.399Z,6.12
2023-05-08T20:19:51.298Z,5.90
2023-05-08T20:22:18.399Z,6.15
2023-05-08T20:24:45.223Z,6.75
2023-05-08T20:29:38.728Z,6.87
2023-05-08T20:32:07.426Z,8.95
2023-05-08T20:34:34.671Z,6.25
2023-05-08T20:37:03.865Z,5.28
2023-05-08T20:39:30.764Z,6.93
2023-05-08T20:41:57.620Z,6.97
2023-05-08T20:44:24.582Z,7.28
2023-05-08T20:46:51.977Z,8.43
2023-05-08T20:49:18.843Z,5.47
2023-05-08T20:51:45.756Z,7.30
2023-05-08T20:54:12.581Z,9.32
2023-05-08T20:59:06.181Z,6.10
2023-05-08T21:01:33.068Z,7.93
2023-05-08T21:03:59.904Z,8.43
2023-05-08T21:08:53.471Z,6.78
2023-05-08T21:11:21.299Z,3.60
2023-05-08T21:13:48.260Z,9.02
2023-05-08T21:16:15.129Z,8.23
2023-05-08T21:18:42.130Z,7.53
2023-05-08T21:21:20.065Z,7.55
2023-05-08T21:23:46.910Z,9.13
2023-05-08T21:26:13.843Z,8.60
2023-05-08T21:28:40.944Z,8.38
2023-05-08T21:31:07.873Z,7.90
2023-05-08T21:33:35.125Z,6.97
2023-05-08T21:36:02.082Z,7.45
2023-05-08T21:38:30.097Z,8.55
2023-05-08T21:40:57.114Z,6.80
2023-05-08T21:43:23.989Z,10.40
2023-05-08T21:45:50.859Z,9.00
2023-05-08T21:48:17.718Z,8.57
2023-05-08T21:50:44.536Z,7.53
2023-05-08T21:55:38.128Z,8.98
2023-05-08T21:58:05.072Z,9.48
2023-05-08T22:00:31.917Z,7.72
2023-05-08T22:05:25.539Z,7.78
2023-05-08T22:07:52.417Z,7.45
2023-05-08T22:10:21.510Z,7.93
2023-05-08T22:12:48.931Z,8.40
2023-05-08T22:15:28.563Z,9.35
2023-05-08T22:17:57.031Z,9.25
2023-05-08T22:20:24.005Z,8.63
2023-05-08T22:22:50.940Z,7.12
2023-05-08T22:25:17.846Z,8.73
2023-05-08T22:27:45.538Z,6.75
2023-05-08T22:30:12.727Z,7.95
2023-05-08T22:32:39.747Z,7.75
2023-05-08T22:35:07.027Z,7.62
2023-05-08T22:37:33.877Z,7.62
2023-05-08T22:40:00.762Z,9.38
2023-05-08T22:42:27.648Z,7.80
2023-05-08T22:44:54.529Z,7.95
2023-05-08T22:47:21.399Z,8.55
2023-05-08T22:49:48.940Z,8.52
2023-05-08T22:52:17.183Z,6.80
2023-05-08T22:54:44.061Z,7.62
2023-05-08T22:57:10.905Z,8.77
2023-05-08T22:59:37.820Z,6.85
2023-05-08T23:02:04.676Z,6.93
2023-05-08T23:06:58.243Z,8.85
2023-05-08T23:11:51.841Z,7.18
2023-05-08T23:14:18.722Z,6.12
2023-05-08T23:16:46.264Z,10.20
2023-05-08T23:19:13.189Z,8.45
2023-05-08T23:21:40.027Z,11.25
2023-05-08T23:26:33.659Z,12.13
2023-05-08T23:29:00.833Z,7.87
2023-05-08T23:31:27.873Z,8.88
2023-05-08T23:33:54.732Z,8.90
2023-05-08T23:36:22.101Z,8.98
2023-05-08T23:38:49.001Z,9.35
2023-05-08T23:41:15.880Z,8.18
2023-05-08T23:43:42.680Z,9.00
2023-05-08T23:48:36.873Z,13.32
2023-05-08T23:51:03.860Z,9.95
2023-05-08T23:53:30.740Z,9.00
2023-05-08T23:55:57.877Z,9.23
2023-05-08T23:58:24.748Z,8.68
